Hlavní strana
METAR-TAF:

METAR-TAF

Letiště :

Uppsala, Švédsko

zeměpisná šířka: 59-53N, zeměpisná délka: 017-36E, výška: 21 m

Aktuální stav počasí

Zpráva byla vytvořena před 41 minutami, v 07:50 UTC
Severoseverozápadní vítr 7 kt
Teplota -1°C
Vlhkost vzduchu 74%
Tlak 1015 hPa
Viditelnost 10 km a více
Žádná oblačnost pod 1500 m, nevyskytují se cumulonimby.

METAR: ESCM 040750Z 33007KT CAVOK M01/M05 Q1015

Čas: 09:31 (08:31 UTC)

Předpověď počasí

Zpráva byla vytvořena před 1 hodinou a 31 minutami, v 07:00 UTC
Předpověď platná od 04 v 07 UTC do 04 v 15 UTC
Severoseverozápadní vítr 8 kt s nárazy do 18 kt
Viditelnost 10 km a více
Žádná oblačnost pod 1500 m, nevyskytují se cumulonimby.
Pravděpodobnost 30%
od 04 v 12 UTC do 04 v 15 UTC
Oblačno až skoro zataženo ve výšce 3000 ft, Cumulonimbus.
slabé sněhové přeháňky

TAF: ESCM 040700Z 0407/0415 33008G18KT CAVOK PROB30 0412/0415 -SHSN BKN030CB RMK MIL

Stav a předpovědi počasí z více než 4 000 letišť (zprávy METAR a TAF).

Červené a žluté tečky na mapě představují dostupné meteorologické stanice.

Když kurzor umístíte na tečku, zobrazí se název stanice.

Pak kliknutím zobrazíte stav a předpověď počasí.

Chcete-li změnit mapu, kliknutím na zelené tlačítko se znaménkem +mapu přiblížíte, kliknutím na zelené tlačítko se znaménkem – mapu oddálíte a kliknutím na zelené šipky přejdete na sousední mapy.


METAR-TAF: